Hauptseite
METAR-TAF:

METAR-TAF

Flughäfen :

Flugplatz Laupheim

Laupheim, Deutschland

Breite: 48-13N, Länge: 009-55E, Höhe: 538 m

Beobachtung

Neuester Wetterbericht von vor 15 Minuten, um 07:20 UTC
Wind 5 kt aus Nordost
Temperatur -1°C
Luftfeuchtigkeit 86%
Luftdruck 1030 hPa
Sichtweite 10 km oder mehr

METAR: ETHL 010720Z 04005KT 9999 M01/M03 Q1030 BLU+BLU+

Zeit: 08:35 (07:35 UTC)

Prognose

Neuester Wetterbericht von vor 2 Stunden und 13 Minuten, um 05:22 UTC
Gültige Prognose vom 01 um 06 UTC bis 01 um 15 UTC
Wind 7 kt aus Ost/Nordost
Sichtweite 10 km oder mehr
Himmel klar

TAF: ETHL 010522Z 0106/0115 06007KT 9999 NSW SKC

Wetterbeobachtungen und Prognosen von mehr als 4000 Flughäfen (METAR und TAF Bericht).

Die verfügbaren Stationen werden durch gelbe und rote Markierungen auf der Karte dargestellt.

Führen Sie die Maus auf sie, um den Namen der Station zu sehen.

Darauf klicken, um die Beobachtung von Wetterbeobachtungen und Prognosen zu sehen.

Um die Karte zu ändern : klicken Sie auf den grünen Tasten mit einem schwarzen Kreuz Zum Vergrößern, auf den grünen Button mit einem Gedankenstrich zu verkleinern, oder auf die grünen Pfeile für benachbarte Karten.


METAR-TAF: